sensor_id;sensor_type;location;lat;lon;timestamp;pressure;altitude;pressure_sealevel;temperature;humidity
60611;BME280;46439;51.164;13.572;2024-03-17T00:00:51;100772.27;;;7.93;0.00
60611;BME280;46439;51.164;13.572;2024-03-17T00:03:19;100767.92;;;7.90;0.00
60611;BME280;46439;51.164;13.572;2024-03-17T00:05:47;100772.77;;;7.95;0.00
60611;BME280;46439;51.164;13.572;2024-03-17T00:08:15;100771.95;;;8.00;0.00
60611;BME280;46439;51.164;13.572;2024-03-17T00:10:43;100770.60;;;8.00;0.00
60611;BME280;46439;51.164;13.572;2024-03-17T00:13:11;100769.35;;;8.01;0.00
60611;BME280;46439;51.164;13.572;2024-03-17T00:15:39;100773.38;;;7.97;0.00
60611;BME280;46439;51.164;13.572;2024-03-17T00:18:08;100772.58;;;7.87;0.00
60611;BME280;46439;51.164;13.572;2024-03-17T00:20:37;100770.23;;;7.82;0.00
60611;BME280;46439;51.164;13.572;2024-03-17T00:23:06;100766.34;;;7.77;0.00
60611;BME280;46439;51.164;13.572;2024-03-17T00:25:36;100767.56;;;7.76;0.00
60611;BME280;46439;51.164;13.572;2024-03-17T00:28:05;100769.77;;;7.71;0.00
60611;BME280;46439;51.164;13.572;2024-03-17T00:30:34;100768.73;;;7.67;0.00
60611;BME280;46439;51.164;13.572;2024-03-17T00:33:15;100765.98;;;7.66;0.00
60611;BME280;46439;51.164;13.572;2024-03-17T00:35:43;100768.84;;;7.62;0.00
60611;BME280;46439;51.164;13.572;2024-03-17T00:38:11;100768.69;;;7.61;0.00
60611;BME280;46439;51.164;13.572;2024-03-17T00:40:40;100771.09;;;7.63;0.00
60611;BME280;46439;51.164;13.572;2024-03-17T00:43:09;100778.76;;;7.61;0.00
60611;BME280;46439;51.164;13.572;2024-03-17T00:45:39;100777.97;;;7.64;0.00
60611;BME280;46439;51.164;13.572;2024-03-17T00:48:08;100771.83;;;7.60;0.00
60611;BME280;46439;51.164;13.572;2024-03-17T00:50:37;100773.05;;;7.65;0.00
60611;BME280;46439;51.164;13.572;2024-03-17T00:53:05;100772.66;;;7.71;0.00
60611;BME280;46439;51.164;13.572;2024-03-17T00:55:34;100764.14;;;7.72;0.00
60611;BME280;46439;51.164;13.572;2024-03-17T00:58:01;100766.27;;;7.66;0.00
60611;BME280;46439;51.164;13.572;2024-03-17T01:00:31;100770.81;;;7.66;0.00
60611;BME280;46439;51.164;13.572;2024-03-17T01:03:00;100775.48;;;7.64;0.00
60611;BME280;46439;51.164;13.572;2024-03-17T01:05:28;100773.83;;;7.60;0.00
60611;BME280;46439;51.164;13.572;2024-03-17T01:08:07;100771.89;;;7.62;0.00
60611;BME280;46439;51.164;13.572;2024-03-17T01:10:38;100774.83;;;7.57;0.00
60611;BME280;46439;51.164;13.572;2024-03-17T01:13:08;100777.33;;;7.53;0.00
60611;BME280;46439;51.164;13.572;2024-03-17T01:15:38;100778.69;;;7.50;0.00
60611;BME280;46439;51.164;13.572;2024-03-17T01:18:07;100779.46;;;7.45;0.00
60611;BME280;46439;51.164;13.572;2024-03-17T01:20:37;100777.90;;;7.41;0.00
60611;BME280;46439;51.164;13.572;2024-03-17T01:23:05;100779.42;;;7.40;0.00
60611;BME280;46439;51.164;13.572;2024-03-17T01:25:35;100778.90;;;7.38;0.00
60611;BME280;46439;51.164;13.572;2024-03-17T01:28:06;100771.74;;;7.25;0.00
60611;BME280;46439;51.164;13.572;2024-03-17T01:30:34;100773.02;;;7.21;0.00
60611;BME280;46439;51.164;13.572;2024-03-17T01:33:03;100778.64;;;7.14;0.00
60611;BME280;46439;51.164;13.572;2024-03-17T01:35:33;100779.23;;;7.07;0.00
60611;BME280;46439;51.164;13.572;2024-03-17T01:38:01;100781.17;;;7.02;0.00
60611;BME280;46439;51.164;13.572;2024-03-17T01:40:29;100784.13;;;6.99;0.00
60611;BME280;46439;51.164;13.572;2024-03-17T01:42:57;100785.14;;;6.98;0.00
60611;BME280;46439;51.164;13.572;2024-03-17T01:45:30;100782.98;;;7.02;0.00
60611;BME280;46439;51.164;13.572;2024-03-17T01:48:00;100785.08;;;6.98;0.00
60611;BME280;46439;51.164;13.572;2024-03-17T01:50:33;100783.03;;;6.99;0.00
60611;BME280;46439;51.164;13.572;2024-03-17T01:53:04;100783.80;;;6.96;0.00
60611;BME280;46439;51.164;13.572;2024-03-17T01:55:33;100783.52;;;6.93;0.00
60611;BME280;46439;51.164;13.572;2024-03-17T01:58:03;100785.43;;;6.86;0.00
60611;BME280;46439;51.164;13.572;2024-03-17T02:00:31;100787.52;;;6.76;0.00
60611;BME280;46439;51.164;13.572;2024-03-17T02:03:01;100783.36;;;6.79;0.00
60611;BME280;46439;51.164;13.572;2024-03-17T02:05:29;100782.30;;;6.83;0.00
60611;BME280;46439;51.164;13.572;2024-03-17T02:07:57;100780.85;;;6.81;0.00
60611;BME280;46439;51.164;13.572;2024-03-17T02:10:26;100783.45;;;6.92;0.00
60611;BME280;46439;51.164;13.572;2024-03-17T02:12:54;100784.13;;;6.95;0.00
60611;BME280;46439;51.164;13.572;2024-03-17T02:15:22;100780.36;;;6.97;0.00
60611;BME280;46439;51.164;13.572;2024-03-17T02:17:50;100781.02;;;7.01;0.00
60611;BME280;46439;51.164;13.572;2024-03-17T02:20:18;100786.05;;;7.05;0.00
60611;BME280;46439;51.164;13.572;2024-03-17T02:22:46;100782.61;;;7.03;0.00
60611;BME280;46439;51.164;13.572;2024-03-17T02:25:14;100781.98;;;6.99;0.00
60611;BME280;46439;51.164;13.572;2024-03-17T02:27:42;100779.66;;;6.99;0.00
60611;BME280;46439;51.164;13.572;2024-03-17T02:30:11;100781.59;;;7.01;0.00
60611;BME280;46439;51.164;13.572;2024-03-17T02:32:39;100779.14;;;7.01;0.00
60611;BME280;46439;51.164;13.572;2024-03-17T02:35:08;100778.52;;;6.97;0.00
60611;BME280;46439;51.164;13.572;2024-03-17T02:37:38;100777.55;;;6.92;0.00
60611;BME280;46439;51.164;13.572;2024-03-17T02:40:09;100775.90;;;6.82;0.00
60611;BME280;46439;51.164;13.572;2024-03-17T02:42:38;100776.38;;;6.75;0.00
60611;BME280;46439;51.164;13.572;2024-03-17T02:45:08;100778.94;;;6.66;0.00
60611;BME280;46439;51.164;13.572;2024-03-17T02:47:36;100776.29;;;6.55;0.00
60611;BME280;46439;51.164;13.572;2024-03-17T02:50:05;100773.88;;;6.48;0.00
60611;BME280;46439;51.164;13.572;2024-03-17T02:52:33;100771.51;;;6.44;0.00
60611;BME280;46439;51.164;13.572;2024-03-17T02:55:01;100771.66;;;6.38;0.00
60611;BME280;46439;51.164;13.572;2024-03-17T02:57:29;100771.83;;;6.32;0.00
60611;BME280;46439;51.164;13.572;2024-03-17T02:59:59;100773.89;;;6.18;0.00
60611;BME280;46439;51.164;13.572;2024-03-17T03:02:27;100773.02;;;6.11;0.00
60611;BME280;46439;51.164;13.572;2024-03-17T03:04:54;100773.41;;;6.09;0.00
60611;BME280;46439;51.164;13.572;2024-03-17T03:07:22;100774.09;;;6.03;0.00
60611;BME280;46439;51.164;13.572;2024-03-17T03:09:51;100773.89;;;5.97;0.00
60611;BME280;46439;51.164;13.572;2024-03-17T03:12:19;100772.19;;;5.95;0.00
60611;BME280;46439;51.164;13.572;2024-03-17T03:14:47;100773.66;;;5.93;0.00
60611;BME280;46439;51.164;13.572;2024-03-17T03:17:15;100774.23;;;5.88;0.00
60611;BME280;46439;51.164;13.572;2024-03-17T03:19:43;100774.16;;;5.80;0.00
60611;BME280;46439;51.164;13.572;2024-03-17T03:22:12;100781.45;;;5.77;0.00
60611;BME280;46439;51.164;13.572;2024-03-17T03:24:40;100774.96;;;5.75;0.00
60611;BME280;46439;51.164;13.572;2024-03-17T03:27:08;100772.80;;;5.73;0.00
60611;BME280;46439;51.164;13.572;2024-03-17T03:29:36;100773.30;;;5.67;0.00
60611;BME280;46439;51.164;13.572;2024-03-17T03:32:06;100773.09;;;5.65;0.00
60611;BME280;46439;51.164;13.572;2024-03-17T03:34:35;100768.28;;;5.69;0.00
60611;BME280;46439;51.164;13.572;2024-03-17T03:37:03;100768.27;;;5.70;0.00
60611;BME280;46439;51.164;13.572;2024-03-17T03:39:31;100769.27;;;5.62;0.00
60611;BME280;46439;51.164;13.572;2024-03-17T03:42:00;100767.92;;;5.63;0.00
60611;BME280;46439;51.164;13.572;2024-03-17T03:44:28;100769.23;;;5.69;0.00
60611;BME280;46439;51.164;13.572;2024-03-17T03:46:56;100768.04;;;5.61;0.00
60611;BME280;46439;51.164;13.572;2024-03-17T03:49:26;100772.98;;;5.62;0.00
60611;BME280;46439;51.164;13.572;2024-03-17T03:51:54;100775.66;;;5.58;0.00
60611;BME280;46439;51.164;13.572;2024-03-17T03:54:22;100778.86;;;5.49;0.00
60611;BME280;46439;51.164;13.572;2024-03-17T03:56:50;100774.70;;;5.46;0.00
60611;BME280;46439;51.164;13.572;2024-03-17T03:59:18;100777.33;;;5.39;0.00
60611;BME280;46439;51.164;13.572;2024-03-17T04:01:46;100780.13;;;5.40;0.00
60611;BME280;46439;51.164;13.572;2024-03-17T04:04:15;100780.59;;;5.44;0.00
60611;BME280;46439;51.164;13.572;2024-03-17T04:06:43;100777.77;;;5.45;0.00
60611;BME280;46439;51.164;13.572;2024-03-17T04:09:11;100776.96;;;5.44;0.00
60611;BME280;46439;51.164;13.572;2024-03-17T04:11:39;100781.51;;;5.46;0.00
60611;BME280;46439;51.164;13.572;2024-03-17T04:14:07;100783.08;;;5.48;0.00
60611;BME280;46439;51.164;13.572;2024-03-17T04:16:35;100779.55;;;5.58;0.00
60611;BME280;46439;51.164;13.572;2024-03-17T04:19:04;100784.23;;;5.65;0.00
60611;BME280;46439;51.164;13.572;2024-03-17T04:21:31;100781.36;;;5.62;0.00
60611;BME280;46439;51.164;13.572;2024-03-17T04:23:59;100784.75;;;5.65;0.00
60611;BME280;46439;51.164;13.572;2024-03-17T04:26:27;100784.91;;;5.65;0.00
60611;BME280;46439;51.164;13.572;2024-03-17T04:28:55;100787.98;;;5.69;0.00
60611;BME280;46439;51.164;13.572;2024-03-17T04:31:24;100786.22;;;5.75;0.00
60611;BME280;46439;51.164;13.572;2024-03-17T04:33:52;100788.00;;;5.82;0.00
60611;BME280;46439;51.164;13.572;2024-03-17T04:36:20;100790.38;;;5.76;0.00
60611;BME280;46439;51.164;13.572;2024-03-17T04:38:48;100785.91;;;5.77;0.00
60611;BME280;46439;51.164;13.572;2024-03-17T04:41:17;100781.94;;;5.79;0.00
60611;BME280;46439;51.164;13.572;2024-03-17T04:43:46;100781.05;;;5.88;0.00
60611;BME280;46439;51.164;13.572;2024-03-17T04:46:14;100783.21;;;5.92;0.00
60611;BME280;46439;51.164;13.572;2024-03-17T04:48:43;100782.88;;;5.85;0.00
60611;BME280;46439;51.164;13.572;2024-03-17T04:51:16;100782.70;;;5.91;0.00
60611;BME280;46439;51.164;13.572;2024-03-17T04:53:44;100778.81;;;5.89;0.00
60611;BME280;46439;51.164;13.572;2024-03-17T04:56:12;100786.03;;;5.92;0.00
60611;BME280;46439;51.164;13.572;2024-03-17T04:58:40;100789.84;;;5.89;0.00
60611;BME280;46439;51.164;13.572;2024-03-17T05:01:08;100789.46;;;5.85;0.00
60611;BME280;46439;51.164;13.572;2024-03-17T05:03:36;100790.35;;;5.77;0.00
60611;BME280;46439;51.164;13.572;2024-03-17T05:06:05;100793.67;;;5.67;0.00
60611;BME280;46439;51.164;13.572;2024-03-17T05:08:34;100799.91;;;5.71;0.00
60611;BME280;46439;51.164;13.572;2024-03-17T05:11:05;100801.84;;;5.81;0.00
60611;BME280;46439;51.164;13.572;2024-03-17T05:13:34;100807.63;;;5.88;0.00
60611;BME280;46439;51.164;13.572;2024-03-17T05:16:03;100805.34;;;5.97;0.00
60611;BME280;46439;51.164;13.572;2024-03-17T05:18:31;100804.27;;;6.03;0.00
60611;BME280;46439;51.164;13.572;2024-03-17T05:21:04;100804.98;;;6.04;0.00
60611;BME280;46439;51.164;13.572;2024-03-17T05:23:34;100806.97;;;5.99;0.00
60611;BME280;46439;51.164;13.572;2024-03-17T05:26:03;100806.73;;;6.02;0.00
60611;BME280;46439;51.164;13.572;2024-03-17T05:28:34;100807.86;;;5.97;0.00
60611;BME280;46439;51.164;13.572;2024-03-17T05:31:02;100807.33;;;5.86;0.00
60611;BME280;46439;51.164;13.572;2024-03-17T05:33:29;100812.39;;;5.85;0.00
60611;BME280;46439;51.164;13.572;2024-03-17T05:35:58;100810.36;;;5.79;0.00
60611;BME280;46439;51.164;13.572;2024-03-17T05:38:27;100816.70;;;5.80;0.00
60611;BME280;46439;51.164;13.572;2024-03-17T05:40:57;100818.73;;;5.86;0.00
60611;BME280;46439;51.164;13.572;2024-03-17T05:43:28;100823.31;;;5.91;0.00
60611;BME280;46439;51.164;13.572;2024-03-17T05:45:59;100818.25;;;5.92;0.00
60611;BME280;46439;51.164;13.572;2024-03-17T05:48:27;100819.91;;;5.98;0.00
60611;BME280;46439;51.164;13.572;2024-03-17T05:50:55;100822.83;;;5.95;0.00
60611;BME280;46439;51.164;13.572;2024-03-17T05:53:24;100820.44;;;5.82;0.00
60611;BME280;46439;51.164;13.572;2024-03-17T05:55:52;100826.02;;;5.75;0.00
60611;BME280;46439;51.164;13.572;2024-03-17T05:58:20;100824.30;;;5.79;0.00
60611;BME280;46439;51.164;13.572;2024-03-17T06:00:48;100828.58;;;5.90;0.00
60611;BME280;46439;51.164;13.572;2024-03-17T06:03:16;100834.94;;;6.02;0.00
60611;BME280;46439;51.164;13.572;2024-03-17T06:05:45;100836.77;;;6.08;0.00
60611;BME280;46439;51.164;13.572;2024-03-17T06:08:14;100837.21;;;6.30;0.00
60611;BME280;46439;51.164;13.572;2024-03-17T06:10:45;100835.48;;;6.38;0.00
60611;BME280;46439;51.164;13.572;2024-03-17T06:13:14;100837.14;;;6.42;0.00
60611;BME280;46439;51.164;13.572;2024-03-17T06:15:44;100838.80;;;6.43;0.00
60611;BME280;46439;51.164;13.572;2024-03-17T06:18:15;100841.80;;;6.52;0.00
60611;BME280;46439;51.164;13.572;2024-03-17T06:20:46;100843.98;;;6.60;0.00
60611;BME280;46439;51.164;13.572;2024-03-17T06:23:15;100850.52;;;6.63;0.00
60611;BME280;46439;51.164;13.572;2024-03-17T06:25:45;100847.36;;;6.69;0.00
60611;BME280;46439;51.164;13.572;2024-03-17T06:28:15;100844.77;;;6.70;0.00
60611;BME280;46439;51.164;13.572;2024-03-17T06:30:44;100848.59;;;6.71;0.00
60611;BME280;46439;51.164;13.572;2024-03-17T06:33:17;100852.59;;;6.72;0.00
60611;BME280;46439;51.164;13.572;2024-03-17T06:35:48;100857.65;;;6.74;0.00
60611;BME280;46439;51.164;13.572;2024-03-17T06:38:16;100857.92;;;6.78;0.00
60611;BME280;46439;51.164;13.572;2024-03-17T06:40:49;100854.04;;;6.79;0.00
60611;BME280;46439;51.164;13.572;2024-03-17T06:43:18;100853.05;;;6.76;0.00
60611;BME280;46439;51.164;13.572;2024-03-17T06:45:54;100854.08;;;6.76;0.00
60611;BME280;46439;51.164;13.572;2024-03-17T06:48:23;100857.27;;;6.74;0.00
60611;BME280;46439;51.164;13.572;2024-03-17T06:50:52;100857.95;;;6.77;0.00
60611;BME280;46439;51.164;13.572;2024-03-17T06:53:22;100860.17;;;6.80;0.00
60611;BME280;46439;51.164;13.572;2024-03-17T06:55:56;100858.04;;;6.80;0.00
60611;BME280;46439;51.164;13.572;2024-03-17T06:58:26;100859.29;;;6.78;0.00
60611;BME280;46439;51.164;13.572;2024-03-17T07:00:58;100863.58;;;6.78;0.00
60611;BME280;46439;51.164;13.572;2024-03-17T07:03:31;100864.26;;;6.79;0.00
60611;BME280;46439;51.164;13.572;2024-03-17T07:06:00;100868.27;;;6.80;0.00
60611;BME280;46439;51.164;13.572;2024-03-17T07:08:30;100873.48;;;6.83;0.00
60611;BME280;46439;51.164;13.572;2024-03-17T07:11:00;100872.18;;;6.90;0.00
60611;BME280;46439;51.164;13.572;2024-03-17T07:13:29;100870.80;;;6.91;0.00
60611;BME280;46439;51.164;13.572;2024-03-17T07:15:58;100874.93;;;6.92;0.00
60611;BME280;46439;51.164;13.572;2024-03-17T07:18:27;100873.48;;;6.92;0.00
60611;BME280;46439;51.164;13.572;2024-03-17T07:20:57;100872.88;;;6.99;0.00
60611;BME280;46439;51.164;13.572;2024-03-17T07:23:26;100872.73;;;7.09;0.00
60611;BME280;46439;51.164;13.572;2024-03-17T07:25:55;100875.11;;;7.12;0.00
60611;BME280;46439;51.164;13.572;2024-03-17T07:28:24;100880.41;;;7.18;0.00
60611;BME280;46439;51.164;13.572;2024-03-17T07:30:53;100882.84;;;7.24;0.00
60611;BME280;46439;51.164;13.572;2024-03-17T07:33:22;100884.85;;;7.30;0.00
60611;BME280;46439;51.164;13.572;2024-03-17T07:35:51;100879.16;;;7.38;0.00
60611;BME280;46439;51.164;13.572;2024-03-17T07:38:19;100880.23;;;7.42;0.00
60611;BME280;46439;51.164;13.572;2024-03-17T07:40:58;100880.48;;;7.43;0.00
60611;BME280;46439;51.164;13.572;2024-03-17T07:43:27;100882.65;;;7.47;0.00
60611;BME280;46439;51.164;13.572;2024-03-17T07:46:05;100882.64;;;7.51;0.00
60611;BME280;46439;51.164;13.572;2024-03-17T07:48:35;100881.73;;;7.54;0.00
60611;BME280;46439;51.164;13.572;2024-03-17T07:51:05;100880.14;;;7.57;0.00
60611;BME280;46439;51.164;13.572;2024-03-17T07:53:37;100883.02;;;7.63;0.00
60611;BME280;46439;51.164;13.572;2024-03-17T07:56:07;100883.90;;;7.69;0.00
60611;BME280;46439;51.164;13.572;2024-03-17T07:58:38;100885.99;;;7.74;0.00
60611;BME280;46439;51.164;13.572;2024-03-17T08:01:08;100886.86;;;7.76;0.00
60611;BME280;46439;51.164;13.572;2024-03-17T08:03:39;100889.80;;;7.78;0.00
60611;BME280;46439;51.164;13.572;2024-03-17T08:06:08;100887.46;;;7.76;0.00
60611;BME280;46439;51.164;13.572;2024-03-17T08:08:37;100882.80;;;7.77;0.00
60611;BME280;46439;51.164;13.572;2024-03-17T08:11:05;100887.69;;;7.83;0.00
60611;BME280;46439;51.164;13.572;2024-03-17T08:13:33;100893.70;;;7.78;0.00
60611;BME280;46439;51.164;13.572;2024-03-17T08:16:04;100891.34;;;7.74;0.00
60611;BME280;46439;51.164;13.572;2024-03-17T08:18:43;100889.10;;;7.81;0.00
60611;BME280;46439;51.164;13.572;2024-03-17T08:21:11;100891.72;;;7.86;0.00
60611;BME280;46439;51.164;13.572;2024-03-17T08:23:39;100888.83;;;7.88;0.00
60611;BME280;46439;51.164;13.572;2024-03-17T08:26:09;100893.48;;;7.90;0.00
60611;BME280;46439;51.164;13.572;2024-03-17T08:28:37;100895.05;;;7.87;0.00
60611;BME280;46439;51.164;13.572;2024-03-17T08:31:09;100894.34;;;7.88;0.00
60611;BME280;46439;51.164;13.572;2024-03-17T08:33:51;100889.94;;;7.90;0.00
60611;BME280;46439;51.164;13.572;2024-03-17T08:36:20;100884.52;;;7.86;0.00
60611;BME280;46439;51.164;13.572;2024-03-17T08:38:48;100881.54;;;7.92;0.00
60611;BME280;46439;51.164;13.572;2024-03-17T08:41:17;100881.09;;;7.97;0.00
60611;BME280;46439;51.164;13.572;2024-03-17T08:43:45;100876.39;;;8.01;0.00
60611;BME280;46439;51.164;13.572;2024-03-17T08:46:13;100875.95;;;8.06;0.00
60611;BME280;46439;51.164;13.572;2024-03-17T08:48:42;100875.09;;;8.15;0.00
60611;BME280;46439;51.164;13.572;2024-03-17T08:51:10;100869.59;;;8.38;0.00
60611;BME280;46439;51.164;13.572;2024-03-17T08:53:38;100868.52;;;8.50;0.00
60611;BME280;46439;51.164;13.572;2024-03-17T08:56:07;100865.30;;;8.57;0.00
60611;BME280;46439;51.164;13.572;2024-03-17T08:58:35;100867.27;;;8.65;0.00
60611;BME280;46439;51.164;13.572;2024-03-17T09:01:07;100861.80;;;8.78;0.00
60611;BME280;46439;51.164;13.572;2024-03-17T09:03:37;100860.73;;;8.83;0.00
60611;BME280;46439;51.164;13.572;2024-03-17T09:06:16;100860.55;;;8.95;0.00
60611;BME280;46439;51.164;13.572;2024-03-17T09:08:45;100857.88;;;9.02;0.00
60611;BME280;46439;51.164;13.572;2024-03-17T09:11:17;100855.66;;;9.09;0.00
60611;BME280;46439;51.164;13.572;2024-03-17T09:13:46;100852.15;;;9.19;0.00
60611;BME280;46439;51.164;13.572;2024-03-17T09:16:16;100845.27;;;9.21;0.00
60611;BME280;46439;51.164;13.572;2024-03-17T09:18:48;100844.81;;;9.30;0.00
60611;BME280;46439;51.164;13.572;2024-03-17T09:21:19;100839.31;;;9.36;0.00
60611;BME280;46439;51.164;13.572;2024-03-17T09:23:48;100837.44;;;9.41;0.00
60611;BME280;46439;51.164;13.572;2024-03-17T09:26:18;100833.38;;;9.50;0.00
60611;BME280;46439;51.164;13.572;2024-03-17T09:28:46;100830.33;;;9.55;0.00
60611;BME280;46439;51.164;13.572;2024-03-17T09:31:14;100827.48;;;9.64;0.00
60611;BME280;46439;51.164;13.572;2024-03-17T09:33:42;100827.21;;;9.70;0.00
60611;BME280;46439;51.164;13.572;2024-03-17T09:36:10;100825.41;;;9.76;0.00
60611;BME280;46439;51.164;13.572;2024-03-17T09:38:41;100819.27;;;9.81;0.00
60611;BME280;46439;51.164;13.572;2024-03-17T09:41:19;100817.96;;;9.86;0.00
60611;BME280;46439;51.164;13.572;2024-03-17T09:43:48;100815.70;;;9.92;0.00
60611;BME280;46439;51.164;13.572;2024-03-17T09:46:18;100811.64;;;10.00;0.00
60611;BME280;46439;51.164;13.572;2024-03-17T09:48:46;100810.98;;;10.03;0.00
60611;BME280;46439;51.164;13.572;2024-03-17T09:51:19;100808.83;;;10.02;0.00
60611;BME280;46439;51.164;13.572;2024-03-17T09:53:48;100811.09;;;10.06;0.00
60611;BME280;46439;51.164;13.572;2024-03-17T09:56:18;100806.42;;;10.13;0.00
60611;BME280;46439;51.164;13.572;2024-03-17T09:58:48;100805.89;;;10.22;0.00
60611;BME280;46439;51.164;13.572;2024-03-17T10:01:17;100803.76;;;10.32;0.00
60611;BME280;46439;51.164;13.572;2024-03-17T10:03:48;100803.50;;;10.33;0.00
60611;BME280;46439;51.164;13.572;2024-03-17T10:06:21;100803.53;;;10.33;0.00
60611;BME280;46439;51.164;13.572;2024-03-17T10:08:50;100802.38;;;10.41;0.00
60611;BME280;46439;51.164;13.572;2024-03-17T10:11:19;100804.04;;;10.51;0.00
60611;BME280;46439;51.164;13.572;2024-03-17T10:14:00;100802.00;;;10.55;0.00
60611;BME280;46439;51.164;13.572;2024-03-17T10:16:30;100802.97;;;10.58;0.00
60611;BME280;46439;51.164;13.572;2024-03-17T10:19:10;100806.60;;;10.61;0.00
60611;BME280;46439;51.164;13.572;2024-03-17T10:21:42;100801.41;;;10.61;0.00
60611;BME280;46439;51.164;13.572;2024-03-17T10:24:12;100805.85;;;10.60;0.00
60611;BME280;46439;51.164;13.572;2024-03-17T10:26:46;100806.11;;;10.66;0.00
60611;BME280;46439;51.164;13.572;2024-03-17T10:29:22;100804.29;;;10.75;0.00
60611;BME280;46439;51.164;13.572;2024-03-17T10:31:53;100810.05;;;10.87;0.00
60611;BME280;46439;51.164;13.572;2024-03-17T10:34:22;100808.27;;;10.89;0.00
60611;BME280;46439;51.164;13.572;2024-03-17T10:36:52;100810.48;;;10.83;0.00
60611;BME280;46439;51.164;13.572;2024-03-17T10:39:33;100812.85;;;10.81;0.00
60611;BME280;46439;51.164;13.572;2024-03-17T10:42:03;100806.44;;;10.82;0.00
60611;BME280;46439;51.164;13.572;2024-03-17T10:44:32;100805.20;;;10.85;0.00
60611;BME280;46439;51.164;13.572;2024-03-17T10:47:01;100800.20;;;10.92;0.00
60611;BME280;46439;51.164;13.572;2024-03-17T10:49:38;100799.40;;;10.98;0.00
60611;BME280;46439;51.164;13.572;2024-03-17T10:52:08;100799.65;;;11.01;0.00
60611;BME280;46439;51.164;13.572;2024-03-17T10:54:48;100795.20;;;10.95;0.00
60611;BME280;46439;51.164;13.572;2024-03-17T10:57:24;100796.94;;;10.99;0.00
60611;BME280;46439;51.164;13.572;2024-03-17T10:59:55;100795.61;;;10.96;0.00
60611;BME280;46439;51.164;13.572;2024-03-17T11:02:25;100794.02;;;10.90;0.00
60611;BME280;46439;51.164;13.572;2024-03-17T11:04:57;100798.34;;;10.87;0.00
60611;BME280;46439;51.164;13.572;2024-03-17T11:07:27;100794.45;;;10.86;0.00
60611;BME280;46439;51.164;13.572;2024-03-17T11:09:57;100793.00;;;10.87;0.00
60611;BME280;46439;51.164;13.572;2024-03-17T11:12:53;100790.51;;;10.90;0.00
60611;BME280;46439;51.164;13.572;2024-03-17T11:15:50;100794.80;;;10.92;0.00
60611;BME280;46439;51.164;13.572;2024-03-17T11:18:41;100788.61;;;10.89;0.00
60611;BME280;46439;51.164;13.572;2024-03-17T11:21:20;100791.23;;;10.93;0.00
60611;BME280;46439;51.164;13.572;2024-03-17T11:24:01;100785.23;;;10.95;0.00
60611;BME280;46439;51.164;13.572;2024-03-17T11:26:31;100783.05;;;11.10;0.00
60611;BME280;46439;51.164;13.572;2024-03-17T11:29:00;100778.91;;;11.23;0.00
60611;BME280;46439;51.164;13.572;2024-03-17T11:31:37;100774.92;;;11.33;0.00
60611;BME280;46439;51.164;13.572;2024-03-17T11:34:27;100774.58;;;11.38;0.00
60611;BME280;46439;51.164;13.572;2024-03-17T11:36:59;100775.98;;;11.34;0.00
60611;BME280;46439;51.164;13.572;2024-03-17T11:39:52;100774.76;;;11.23;0.00
60611;BME280;46439;51.164;13.572;2024-03-17T11:42:31;100776.74;;;11.13;0.00
60611;BME280;46439;51.164;13.572;2024-03-17T11:45:15;100774.86;;;11.07;0.00
60611;BME280;46439;51.164;13.572;2024-03-17T11:47:47;100773.02;;;11.04;0.00
60611;BME280;46439;51.164;13.572;2024-03-17T11:50:16;100776.31;;;11.07;0.00
60611;BME280;46439;51.164;13.572;2024-03-17T11:52:44;100776.64;;;11.14;0.00
60611;BME280;46439;51.164;13.572;2024-03-17T11:55:20;100779.33;;;11.24;0.00
60611;BME280;46439;51.164;13.572;2024-03-17T11:57:56;100780.30;;;11.32;0.00
60611;BME280;46439;51.164;13.572;2024-03-17T12:00:25;100778.20;;;11.43;0.00
60611;BME280;46439;51.164;13.572;2024-03-17T12:02:54;100774.61;;;11.51;0.00
60611;BME280;46439;51.164;13.572;2024-03-17T12:05:26;100773.66;;;11.59;0.00
60611;BME280;46439;51.164;13.572;2024-03-17T12:07:55;100768.95;;;11.56;0.00
60611;BME280;46439;51.164;13.572;2024-03-17T12:10:23;100759.93;;;11.61;0.00
60611;BME280;46439;51.164;13.572;2024-03-17T12:12:51;100758.00;;;11.60;0.00
60611;BME280;46439;51.164;13.572;2024-03-17T12:15:20;100755.95;;;11.49;0.00
60611;BME280;46439;51.164;13.572;2024-03-17T12:17:53;100752.44;;;11.50;0.00
60611;BME280;46439;51.164;13.572;2024-03-17T12:20:22;100747.83;;;11.56;0.00
60611;BME280;46439;51.164;13.572;2024-03-17T12:22:51;100752.34;;;11.64;0.00
60611;BME280;46439;51.164;13.572;2024-03-17T12:25:21;100750.79;;;11.67;0.00
60611;BME280;46439;51.164;13.572;2024-03-17T12:27:50;100758.37;;;11.68;0.00
60611;BME280;46439;51.164;13.572;2024-03-17T12:30:19;100758.97;;;11.68;0.00
60611;BME280;46439;51.164;13.572;2024-03-17T12:32:48;100757.48;;;11.70;0.00
60611;BME280;46439;51.164;13.572;2024-03-17T12:35:18;100758.79;;;11.75;0.00
60611;BME280;46439;51.164;13.572;2024-03-17T12:37:47;100754.80;;;11.82;0.00
60611;BME280;46439;51.164;13.572;2024-03-17T12:40:21;100752.09;;;11.90;0.00
60611;BME280;46439;51.164;13.572;2024-03-17T12:42:50;100745.95;;;11.99;0.00
60611;BME280;46439;51.164;13.572;2024-03-17T12:45:21;100737.53;;;12.03;0.00
60611;BME280;46439;51.164;13.572;2024-03-17T12:47:50;100733.16;;;12.03;0.00
60611;BME280;46439;51.164;13.572;2024-03-17T12:50:20;100727.79;;;12.04;0.00
60611;BME280;46439;51.164;13.572;2024-03-17T12:52:57;100725.35;;;12.05;0.00
60611;BME280;46439;51.164;13.572;2024-03-17T12:55:26;100719.80;;;12.13;0.00
60611;BME280;46439;51.164;13.572;2024-03-17T12:58:15;100721.52;;;12.22;0.00
60611;BME280;46439;51.164;13.572;2024-03-17T13:01:03;100727.04;;;12.16;0.00
60611;BME280;46439;51.164;13.572;2024-03-17T13:03:32;100730.55;;;12.12;0.00
60611;BME280;46439;51.164;13.572;2024-03-17T13:06:02;100735.73;;;12.04;0.00
60611;BME280;46439;51.164;13.572;2024-03-17T13:08:32;100731.67;;;11.99;0.00
60611;BME280;46439;51.164;13.572;2024-03-17T13:11:00;100730.27;;;12.05;0.00
60611;BME280;46439;51.164;13.572;2024-03-17T13:13:28;100730.39;;;12.14;0.00